Главная страница
METAR-TAF:

METAR-TAF

Аэропорты :

Пальма, Испания

Пальма-де-Мальорка

широта: 39-33N, долгота: 002-44E, высота над уровнем моря: 4 м

Текущие метеонаблюдения

Эта сводка был подготовлена 34 минут назад, в 11:30 UTC
Ветер 12 Узел от северо-западный
Температура 20°C
Влажность 49%
Давление 1023 hPa
Видимость 10 км и более
Нет облачности ниже 1500 м, и нет кучево-дождевой облачности

METAR: LEPA 221130Z 31012KT CAVOK 20/09 Q1023 NOSIG

Время: 13:04 (12:04 UTC)

Прогноз

Эта сводка был подготовлена 1 час и 4 минут назад, в 11:00 UTC
Прогноз действительный с 22-го 12 UTC до 23-го 12 UTC
Ветер 10 Узел от западно-северо-западный
Видимость 10 км и более
небольшая облачность на высоте 3000 фута
изменения
С 22-го 12 UTC до 22-го 14 UTC
Ветер 9 Узел от западный-юго-западный
изменения
С 22-го 22 UTC до 22-го 24 UTC
Ветер 4 Узел переменных направлений

TAF: LEPA 221100Z 2212/2312 30010KT 9999 FEW030 TX20/2213Z TN07/2307Z BECMG 2212/2214 24009KT BECMG 2222/2224 VRB04KT

Метеонаблюдения и прогнозы для более 4000 аэропортов (сводки METAR и TAF).

Имеющиеся станции представлены на карте желтыми и красными точками.

Чтобы увидеть название станции, наведите на нее мышь.

Затем щелкните, чтобы увидеть метеонаблюдения и метеопрогнозы.

Управление картой: чтобы увеличить масштаб, щелкните зеленые кнопки с черным крестиком; чтобы уменьшить масштаб, щелкните зеленую кнопку с тире; для просмотра соседних карт щелкайте зеленые стрелки.


METAR-TAF: